Time;durP1;ratioP1;P1;durP2;ratioP2;P2;SDS_P1;SDS_P2;PMS_P1;PMS_P2;Temp;Humidity;BMP_temperature;BMP_pressure;BME280_temperature;BME280_humidity;BME280_pressure;Samples;Min_cycle;Max_cycle;Signal;HPM_P1;HPM_P2
2023/04/08 00:01:39;;;;;;;1.15;1.05;;;8.10;99.90;;;;;;5066673;28;20679;-66
2023/04/08 00:04:08;;;;;;;0.93;0.60;;;8.10;99.90;;;;;;5050046;28;20223;-65
2023/04/08 00:06:37;;;;;;;0.75;0.60;;;8.10;99.90;;;;;;5058373;28;20617;-65
2023/04/08 00:09:05;;;;;;;0.82;0.82;;;8.10;99.90;;;;;;5055152;28;20242;-66
2023/04/08 00:11:34;;;;;;;0.70;0.70;;;8.10;99.90;;;;;;5057196;28;20294;-65
2023/04/08 00:14:03;;;;;;;1.02;0.80;;;8.10;99.90;;;;;;5066520;28;20259;-66
2023/04/08 00:16:31;;;;;;;0.90;0.90;;;8.10;99.90;;;;;;5062593;28;20212;-65
2023/04/08 00:19:00;;;;;;;0.60;0.50;;;8.20;99.90;;;;;;5054868;28;20227;-66
2023/04/08 00:21:28;;;;;;;0.90;0.80;;;8.20;99.90;;;;;;5033416;28;20220;-65
2023/04/08 00:23:55;;;;;;;0.80;0.70;;;8.10;99.90;;;;;;5041342;28;20267;-66
2023/04/08 00:26:23;;;;;;;1.30;1.20;;;8.20;99.90;;;;;;5043861;28;20291;-66
2023/04/08 00:28:53;;;;;;;0.80;0.70;;;8.20;99.90;;;;;;5045048;28;20227;-66
2023/04/08 00:31:21;;;;;;;1.40;1.20;;;8.20;99.90;;;;;;5042215;28;20210;-65
2023/04/08 00:33:49;;;;;;;1.08;0.98;;;8.20;99.90;;;;;;5041510;28;20235;-66
2023/04/08 00:36:18;;;;;;;1.00;0.90;;;8.30;99.90;;;;;;5045888;28;20196;-66
2023/04/08 00:38:45;;;;;;;1.50;1.40;;;8.20;99.90;;;;;;5053117;28;20235;-66
2023/04/08 00:41:13;;;;;;;1.52;1.10;;;8.20;99.90;;;;;;5043976;28;20203;-65
2023/04/08 00:43:41;;;;;;;0.93;0.90;;;8.20;99.90;;;;;;5032963;28;20231;-66
2023/04/08 00:46:11;;;;;;;0.75;0.75;;;8.20;99.90;;;;;;5042235;28;20202;-66
2023/04/08 00:48:39;;;;;;;1.80;0.90;;;8.10;99.90;;;;;;5045765;28;20649;-66
2023/04/08 00:51:07;;;;;;;1.88;1.45;;;8.10;99.90;;;;;;5043531;28;20286;-65
2023/04/08 00:53:35;;;;;;;1.40;1.30;;;8.10;99.90;;;;;;5048495;28;20308;-66
2023/04/08 00:56:03;;;;;;;1.92;1.30;;;8.10;99.90;;;;;;5032665;28;20220;-65
2023/04/08 00:58:31;;;;;;;1.80;1.25;;;8.10;99.90;;;;;;5045243;28;20202;-66
2023/04/08 01:01:10;;;;;;;0.90;0.90;;;8.10;99.90;;;;;;5044229;28;20295;-66
2023/04/08 01:03:48;;;;;;;1.33;1.02;;;8.10;99.90;;;;;;5045244;28;20273;-66
2023/04/08 01:06:25;;;;;;;2.17;1.33;;;8.10;99.90;;;;;;5035966;28;20908;-66
2023/04/08 01:08:54;;;;;;;1.00;0.90;;;8.10;99.90;;;;;;5037809;28;20234;-67
2023/04/08 01:11:22;;;;;;;1.17;0.93;;;8.10;99.90;;;;;;5048476;28;20290;-65
2023/04/08 01:13:55;;;;;;;2.85;1.17;;;8.10;99.90;;;;;;5041223;28;20306;-68
2023/04/08 01:16:25;;;;;;;1.52;1.30;;;8.00;99.90;;;;;;5042961;28;20282;-66
2023/04/08 01:18:56;;;;;;;1.55;1.25;;;8.00;99.90;;;;;;5042398;28;20220;-67
2023/04/08 01:21:25;;;;;;;3.65;1.15;;;8.00;99.90;;;;;;5042922;28;20215;-67
2023/04/08 01:24:01;;;;;;;1.35;1.17;;;8.00;99.90;;;;;;5044381;28;20312;-67
2023/04/08 01:26:31;;;;;;;1.42;1.33;;;8.10;99.90;;;;;;5043924;28;20268;-66
2023/04/08 01:29:01;;;;;;;0.80;0.70;;;8.00;99.90;;;;;;5052254;28;20226;-66
2023/04/08 01:31:30;;;;;;;1.90;0.98;;;8.00;99.90;;;;;;5038293;28;20293;-66
2023/04/08 01:34:01;;;;;;;1.65;1.30;;;8.00;99.90;;;;;;5043041;28;20692;-66
2023/04/08 01:36:31;;;;;;;1.50;1.40;;;8.00;99.90;;;;;;5043672;28;20200;-66
2023/04/08 01:39:00;;;;;;;1.92;1.67;;;8.00;99.90;;;;;;5043705;28;20245;-66
2023/04/08 01:41:31;;;;;;;1.27;0.90;;;8.00;99.90;;;;;;5042944;28;20866;-66
2023/04/08 01:44:00;;;;;;;1.05;0.95;;;8.00;99.90;;;;;;5043765;28;20228;-65
2023/04/08 01:46:29;;;;;;;2.10;1.83;;;8.00;99.90;;;;;;5050188;28;20733;-65
2023/04/08 01:48:58;;;;;;;1.55;1.45;;;8.00;99.90;;;;;;5040656;28;20221;-65
2023/04/08 01:51:27;;;;;;;2.88;1.77;;;7.90;99.90;;;;;;5033753;28;20673;-64
2023/04/08 01:53:54;;;;;;;1.67;1.30;;;7.90;99.90;;;;;;5037258;28;20228;-65
2023/04/08 01:56:23;;;;;;;1.25;1.08;;;7.90;99.90;;;;;;5039542;28;20204;-64
2023/04/08 01:58:55;;;;;;;2.00;1.52;;;7.80;99.90;;;;;;5031847;28;20207;-65
2023/04/08 02:01:27;;;;;;;2.13;1.42;;;7.80;99.90;;;;;;5031369;28;20665;-65
2023/04/08 02:03:57;;;;;;;2.70;1.25;;;7.80;99.90;;;;;;5045721;28;20227;-65
2023/04/08 02:06:28;;;;;;;1.83;1.50;;;7.80;99.90;;;;;;5044581;28;20250;-65
2023/04/08 02:08:56;;;;;;;2.00;1.65;;;7.70;99.90;;;;;;5039755;28;20225;-65
2023/04/08 02:11:24;;;;;;;1.30;1.10;;;7.70;99.90;;;;;;5047982;28;20281;-64
2023/04/08 02:13:54;;;;;;;1.95;1.60;;;7.70;99.90;;;;;;5041403;28;20351;-65
2023/04/08 02:16:24;;;;;;;1.30;1.17;;;7.60;99.90;;;;;;5047492;28;20286;-64
2023/04/08 02:18:56;;;;;;;1.45;0.90;;;7.60;99.90;;;;;;5051217;28;20230;-65
2023/04/08 02:21:31;;;;;;;3.00;2.05;;;7.60;99.90;;;;;;5042487;28;20553;-65
2023/04/08 02:24:03;;;;;;;1.65;1.55;;;7.60;99.90;;;;;;5040835;28;20227;-65
2023/04/08 02:26:33;;;;;;;2.90;2.00;;;7.60;99.90;;;;;;5033688;28;20269;-65
2023/04/08 02:29:05;;;;;;;2.33;1.65;;;7.60;99.90;;;;;;5050647;28;20222;-65
2023/04/08 02:31:34;;;;;;;1.98;1.50;;;7.50;99.90;;;;;;5050504;28;20210;-65
2023/04/08 02:34:04;;;;;;;1.48;1.02;;;7.60;99.90;;;;;;5042658;28;20599;-65
2023/04/08 02:36:33;;;;;;;3.63;1.80;;;7.50;99.90;;;;;;5042258;28;20221;-65
2023/04/08 02:39:01;;;;;;;1.00;0.90;;;7.50;99.90;;;;;;5047470;28;20200;-66
2023/04/08 02:41:29;;;;;;;1.60;1.50;;;7.40;99.90;;;;;;5030346;28;20297;-65
2023/04/08 02:43:57;;;;;;;1.48;1.00;;;7.40;99.90;;;;;;5040579;28;20226;-65
2023/04/08 02:46:26;;;;;;;2.22;1.77;;;7.30;99.90;;;;;;5041963;28;20203;-64
2023/04/08 02:48:54;;;;;;;1.17;0.95;;;7.30;99.90;;;;;;5042546;28;20250;-65
2023/04/08 02:51:22;;;;;;;1.35;1.08;;;7.30;99.90;;;;;;5050137;28;20251;-64
2023/04/08 02:53:50;;;;;;;1.33;1.00;;;7.20;99.90;;;;;;5037826;28;20246;-65
2023/04/08 02:56:17;;;;;;;1.80;1.38;;;7.20;99.90;;;;;;5042016;28;20259;-64
2023/04/08 02:58:45;;;;;;;1.40;1.30;;;7.20;99.90;;;;;;5030949;28;20287;-65
2023/04/08 03:01:13;;;;;;;0.93;0.77;;;7.10;99.90;;;;;;5038770;28;20211;-64
2023/04/08 03:03:42;;;;;;;1.25;1.05;;;7.10;99.90;;;;;;5050425;28;20216;-65
2023/04/08 03:06:11;;;;;;;3.65;2.08;;;7.10;99.90;;;;;;5050319;28;20692;-64
2023/04/08 03:08:38;;;;;;;1.30;0.98;;;7.00;99.90;;;;;;5030646;28;20233;-64
2023/04/08 03:11:06;;;;;;;1.73;1.63;;;7.00;99.90;;;;;;5045864;28;20234;-65
2023/04/08 03:13:34;;;;;;;1.25;0.93;;;6.90;99.90;;;;;;5041812;28;20228;-64
2023/04/08 03:16:02;;;;;;;1.80;1.13;;;6.80;99.90;;;;;;5035510;28;20307;-64
2023/04/08 03:18:30;;;;;;;4.32;1.67;;;6.80;99.90;;;;;;5048804;28;20317;-64
2023/04/08 03:21:00;;;;;;;1.23;1.13;;;6.80;99.90;;;;;;5042126;28;20727;-65
2023/04/08 03:23:28;;;;;;;1.58;1.08;;;6.80;99.90;;;;;;5051145;28;20272;-64
2023/04/08 03:25:55;;;;;;;2.33;1.60;;;6.80;99.90;;;;;;5049974;28;20313;-65
2023/04/08 03:28:23;;;;;;;1.52;1.40;;;6.70;99.90;;;;;;5040125;28;20204;-64
2023/04/08 03:30:51;;;;;;;2.00;1.77;;;6.70;99.90;;;;;;5037530;28;20255;-65
2023/04/08 03:33:19;;;;;;;2.30;2.10;;;6.70;99.90;;;;;;5046884;28;20321;-65
2023/04/08 03:35:47;;;;;;;2.03;1.20;;;6.70;99.90;;;;;;5037456;28;20648;-65
2023/04/08 03:38:16;;;;;;;2.67;2.13;;;6.70;99.90;;;;;;5038509;28;20207;-64
2023/04/08 03:40:44;;;;;;;1.55;1.20;;;6.80;99.90;;;;;;5038049;28;20652;-64
2023/04/08 03:43:12;;;;;;;3.13;1.88;;;6.80;99.90;;;;;;5039798;28;20302;-64
2023/04/08 03:45:40;;;;;;;1.40;1.25;;;6.80;99.90;;;;;;5041798;28;20206;-65
2023/04/08 03:48:08;;;;;;;2.25;1.52;;;6.80;99.90;;;;;;5037632;28;20299;-65
2023/04/08 03:50:35;;;;;;;2.22;2.03;;;6.80;99.90;;;;;;5046428;28;20705;-65
2023/04/08 03:53:03;;;;;;;2.00;1.60;;;6.80;99.90;;;;;;5039522;28;20295;-65
2023/04/08 03:55:33;;;;;;;3.35;1.30;;;6.70;99.90;;;;;;5033711;28;20211;-65
2023/04/08 03:58:00;;;;;;;1.70;1.60;;;6.70;99.90;;;;;;5048398;28;20238;-65
2023/04/08 04:00:28;;;;;;;3.67;2.05;;;6.60;99.90;;;;;;5053320;28;20286;-65
2023/04/08 04:02:56;;;;;;;2.40;1.20;;;6.60;99.90;;;;;;5053504;28;20317;-65
2023/04/08 04:05:24;;;;;;;1.67;0.85;;;6.60;99.90;;;;;;5051489;28;20231;-64
2023/04/08 04:07:52;;;;;;;1.52;1.25;;;6.60;99.90;;;;;;5033768;28;20218;-65
2023/04/08 04:10:20;;;;;;;1.90;1.60;;;6.50;99.90;;;;;;5040857;28;20250;-64
2023/04/08 04:12:49;;;;;;;1.10;0.90;;;6.50;99.90;;;;;;5049220;28;20668;-64
2023/04/08 04:15:17;;;;;;;0.93;0.93;;;6.40;99.90;;;;;;5041613;28;20208;-63
2023/04/08 04:17:49;;;;;;;1.77;1.10;;;6.40;99.90;;;;;;5033389;28;20323;-65
2023/04/08 04:20:17;;;;;;;1.20;1.10;;;6.30;99.90;;;;;;5050187;28;20213;-65
2023/04/08 04:22:45;;;;;;;1.33;1.13;;;6.20;99.90;;;;;;5047568;28;20208;-65
2023/04/08 04:25:13;;;;;;;1.10;0.90;;;6.20;99.90;;;;;;5037549;28;20282;-65
2023/04/08 04:27:41;;;;;;;1.70;1.60;;;6.10;99.90;;;;;;5052553;28;20683;-65
2023/04/08 04:30:14;;;;;;;1.23;1.00;;;6.10;99.90;;;;;;5037876;28;20277;-65
2023/04/08 04:32:42;;;;;;;2.38;2.15;;;6.00;99.90;;;;;;5032928;28;20299;-65
2023/04/08 04:35:10;;;;;;;2.10;1.45;;;6.00;99.90;;;;;;5041609;28;20203;-65
2023/04/08 04:37:38;;;;;;;1.30;1.05;;;5.90;99.90;;;;;;5035038;28;20212;-65
2023/04/08 04:40:07;;;;;;;2.20;1.60;;;5.90;99.90;;;;;;5039068;28;20282;-64
2023/04/08 04:42:35;;;;;;;1.10;1.00;;;5.90;99.90;;;;;;5049918;28;20291;-65
2023/04/08 04:45:03;;;;;;;1.75;1.65;;;5.80;99.90;;;;;;5033144;28;20241;-64
2023/04/08 04:47:32;;;;;;;1.45;1.35;;;5.80;99.90;;;;;;5042499;28;20222;-64
2023/04/08 04:50:00;;;;;;;1.60;1.00;;;5.70;99.90;;;;;;5044552;28;20280;-65
2023/04/08 04:52:28;;;;;;;2.20;1.83;;;5.70;99.90;;;;;;5044654;28;20210;-65
2023/04/08 04:54:57;;;;;;;1.30;1.00;;;5.60;99.90;;;;;;5037679;28;20207;-64
2023/04/08 04:57:25;;;;;;;1.75;1.63;;;5.60;99.90;;;;;;5050646;28;20226;-65
2023/04/08 04:59:53;;;;;;;1.08;0.90;;;5.60;99.90;;;;;;5037364;28;20206;-64
2023/04/08 05:02:21;;;;;;;2.80;2.15;;;5.50;99.90;;;;;;5043952;28;20206;-63
2023/04/08 05:04:52;;;;;;;1.85;1.23;;;5.60;99.90;;;;;;5044996;28;20245;-65
2023/04/08 05:07:20;;;;;;;1.60;1.45;;;5.50;99.90;;;;;;5079041;22;20215;-67
2023/04/08 05:09:48;;;;;;;3.10;2.13;;;5.50;99.90;;;;;;5075004;28;20331;-71
2023/04/08 05:12:16;;;;;;;2.22;1.35;;;5.40;99.90;;;;;;5077407;28;20212;-72
2023/04/08 05:14:45;;;;;;;2.05;1.88;;;5.50;99.90;;;;;;5092305;28;20254;-70
2023/04/08 05:17:12;;;;;;;2.75;1.80;;;5.40;99.90;;;;;;5085275;28;20284;-70
2023/04/08 05:19:40;;;;;;;2.25;1.70;;;5.30;99.90;;;;;;5052600;28;20217;-72
2023/04/08 05:22:09;;;;;;;2.05;1.92;;;5.40;99.90;;;;;;5052099;28;20220;-71
2023/04/08 05:24:37;;;;;;;1.83;1.45;;;5.40;99.90;;;;;;5054750;28;20293;-70
2023/04/08 05:27:05;;;;;;;4.82;2.47;;;5.40;99.90;;;;;;5060123;28;20202;-70
2023/04/08 05:29:33;;;;;;;2.60;1.73;;;5.30;99.90;;;;;;5058701;28;20227;-70
2023/04/08 05:32:01;;;;;;;1.83;1.55;;;5.30;99.90;;;;;;5062989;28;20206;-72
2023/04/08 05:34:31;;;;;;;1.83;1.73;;;5.40;99.90;;;;;;5061637;28;20214;-69
2023/04/08 05:36:59;;;;;;;1.83;1.67;;;5.30;99.90;;;;;;5064340;28;20208;-69
2023/04/08 05:39:28;;;;;;;2.80;2.30;;;5.30;99.90;;;;;;5061112;28;20248;-67
2023/04/08 05:41:56;;;;;;;2.92;2.38;;;5.30;99.90;;;;;;5062705;28;20208;-70
2023/04/08 05:44:24;;;;;;;2.00;1.80;;;5.40;99.90;;;;;;5059822;28;20583;-72
2023/04/08 05:46:56;;;;;;;4.90;3.10;;;5.50;99.90;;;;;;5060826;28;20659;-66
2023/04/08 05:49:26;;;;;;;4.40;2.67;;;5.50;99.90;;;;;;5060119;28;20222;-70
2023/04/08 05:51:54;;;;;;;2.80;2.00;;;5.60;99.90;;;;;;5065753;28;20649;-71
2023/04/08 05:54:22;;;;;;;2.67;2.33;;;5.60;99.90;;;;;;5060551;28;20234;-68
2023/04/08 05:56:51;;;;;;;2.45;2.25;;;5.70;99.90;;;;;;5061964;28;20289;-67
2023/04/08 05:59:19;;;;;;;3.50;2.30;;;5.80;99.90;;;;;;5060443;28;20775;-69
2023/04/08 06:01:47;;;;;;;3.33;1.83;;;5.80;99.90;;;;;;5064457;28;20235;-69
2023/04/08 06:04:16;;;;;;;3.10;2.80;;;5.90;99.90;;;;;;5052699;28;20261;-68
2023/04/08 06:06:44;;;;;;;2.67;2.47;;;5.90;99.90;;;;;;5047355;28;20210;-68
2023/04/08 06:09:12;;;;;;;3.70;2.30;;;5.90;99.90;;;;;;5050945;28;20237;-69
2023/04/08 06:11:40;;;;;;;1.70;1.60;;;5.90;99.90;;;;;;5059066;28;20226;-69
2023/04/08 06:14:09;;;;;;;4.13;2.80;;;6.00;99.90;;;;;;5046518;28;20202;-68
2023/04/08 06:16:37;;;;;;;2.08;1.90;;;6.00;99.90;;;;;;5047791;28;20214;-68
2023/04/08 06:19:05;;;;;;;1.63;1.52;;;6.00;99.90;;;;;;5045178;28;20219;-69
2023/04/08 06:21:33;;;;;;;5.10;2.30;;;6.10;99.90;;;;;;5042918;28;20241;-69
2023/04/08 06:24:00;;;;;;;2.38;2.10;;;6.10;99.90;;;;;;5047645;28;20246;-71
2023/04/08 06:26:28;;;;;;;2.10;1.90;;;6.20;99.90;;;;;;5046359;28;20207;-70
2023/04/08 06:28:56;;;;;;;4.22;1.70;;;6.20;99.90;;;;;;5048719;28;20315;-71
2023/04/08 06:31:25;;;;;;;2.58;2.20;;;6.20;99.90;;;;;;5046163;28;20310;-68
2023/04/08 06:33:54;;;;;;;2.10;1.90;;;6.30;99.90;;;;;;5041530;28;20329;-69
2023/04/08 06:36:22;;;;;;;2.88;2.13;;;6.30;99.90;;;;;;5047834;28;20203;-71
2023/04/08 06:38:50;;;;;;;2.67;2.47;;;6.40;99.90;;;;;;5048050;28;20288;-68
2023/04/08 06:41:18;;;;;;;1.50;1.30;;;6.40;99.90;;;;;;5047886;28;20218;-69
2023/04/08 06:43:46;;;;;;;3.10;2.40;;;6.40;99.90;;;;;;5053877;28;20299;-68
2023/04/08 06:46:14;;;;;;;2.80;2.60;;;6.40;99.90;;;;;;5051388;28;20285;-70
2023/04/08 06:48:43;;;;;;;2.53;1.88;;;6.50;99.90;;;;;;5048292;28;20698;-69
2023/04/08 06:51:11;;;;;;;1.80;1.70;;;6.60;99.90;;;;;;5055598;28;20310;-69
2023/04/08 06:53:39;;;;;;;3.03;2.67;;;6.60;99.90;;;;;;5047775;28;20202;-70
2023/04/08 06:56:07;;;;;;;2.22;1.60;;;6.80;99.90;;;;;;5048981;28;20286;-68
2023/04/08 06:58:35;;;;;;;2.88;2.50;;;6.80;99.90;;;;;;5058220;28;20216;-68
2023/04/08 07:01:03;;;;;;;3.67;2.80;;;6.90;99.90;;;;;;5047663;28;20292;-68
2023/04/08 07:03:31;;;;;;;2.17;1.90;;;7.00;99.90;;;;;;5049706;28;20274;-68
2023/04/08 07:06:01;;;;;;;2.22;2.05;;;7.00;99.90;;;;;;5045623;28;20212;-68
2023/04/08 07:08:28;;;;;;;3.25;2.50;;;7.20;99.90;;;;;;5044736;28;20322;-69
2023/04/08 07:10:56;;;;;;;3.97;2.00;;;7.20;99.90;;;;;;5052675;28;20328;-68
2023/04/08 07:13:24;;;;;;;2.72;2.45;;;7.20;99.90;;;;;;5047745;28;20211;-69
2023/04/08 07:15:52;;;;;;;2.45;1.80;;;7.30;99.90;;;;;;5050882;28;20612;-68
2023/04/08 07:18:20;;;;;;;2.15;1.70;;;7.30;99.90;;;;;;5053573;28;20701;-68
2023/04/08 07:20:52;;;;;;;2.55;2.35;;;7.50;99.90;;;;;;5049091;28;20674;-69
2023/04/08 07:23:22;;;;;;;4.05;1.98;;;7.50;99.90;;;;;;5050179;28;20277;-71
2023/04/08 07:25:50;;;;;;;2.13;1.92;;;7.70;99.90;;;;;;5045610;28;20583;-68
2023/04/08 07:28:18;;;;;;;2.08;1.50;;;7.90;99.90;;;;;;5048999;28;20302;-68
2023/04/08 07:30:46;;;;;;;2.00;1.25;;;8.00;99.90;;;;;;5053819;28;20302;-70
2023/04/08 07:33:14;;;;;;;2.80;2.13;;;8.10;99.90;;;;;;5052439;28;20215;-71
2023/04/08 07:35:42;;;;;;;1.90;1.60;;;8.20;99.90;;;;;;5055225;28;20213;-69
2023/04/08 07:38:12;;;;;;;2.33;1.70;;;8.30;99.90;;;;;;5059296;28;20220;-70
2023/04/08 07:40:41;;;;;;;1.60;1.40;;;8.40;99.90;;;;;;5061824;28;20231;-68
2023/04/08 07:43:09;;;;;;;2.97;2.20;;;8.50;99.90;;;;;;5053577;28;20287;-69
2023/04/08 07:45:37;;;;;;;1.70;1.40;;;8.60;99.90;;;;;;5062624;28;20235;-68
2023/04/08 07:48:05;;;;;;;2.55;2.00;;;8.70;99.90;;;;;;5060583;28;20220;-69
2023/04/08 07:50:33;;;;;;;2.20;1.58;;;8.80;99.90;;;;;;5052771;28;20219;-69
2023/04/08 07:53:21;;;;;;;3.05;1.50;;;8.70;99.90;;;;;;5048928;28;20207;-69
2023/04/08 07:55:52;;;;;;;2.35;2.15;;;8.80;99.90;;;;;;5053290;28;20218;-69
2023/04/08 07:58:20;;;;;;;1.60;1.50;;;9.00;99.90;;;;;;5053482;28;20232;-69
2023/04/08 08:00:48;;;;;;;2.30;1.38;;;9.10;99.90;;;;;;5061119;28;20632;-69
2023/04/08 08:03:15;;;;;;;3.08;2.08;;;9.00;99.90;;;;;;5048269;28;20330;-69
2023/04/08 08:05:43;;;;;;;1.70;1.60;;;9.00;99.90;;;;;;5054908;28;20302;-71
2023/04/08 08:08:11;;;;;;;2.15;1.83;;;8.90;99.90;;;;;;5059730;28;20284;-69
2023/04/08 08:10:40;;;;;;;1.98;1.77;;;8.90;99.90;;;;;;5059775;28;20231;-68
2023/04/08 08:13:11;;;;;;;2.70;2.50;;;8.90;99.90;;;;;;5050588;28;20906;-69
2023/04/08 08:15:39;;;;;;;2.55;1.52;;;8.80;99.90;;;;;;5054172;28;20617;-70
2023/04/08 08:18:06;;;;;;;3.80;1.60;;;8.90;99.90;;;;;;5061274;28;20228;-70
2023/04/08 08:20:35;;;;;;;2.65;2.45;;;8.90;99.90;;;;;;5049565;28;20238;-71
2023/04/08 08:23:03;;;;;;;4.28;1.95;;;8.90;99.90;;;;;;5057255;28;20216;-70
2023/04/08 08:25:31;;;;;;;1.50;1.40;;;8.90;99.90;;;;;;5055021;28;20242;-70
2023/04/08 08:27:59;;;;;;;1.92;1.63;;;8.80;99.90;;;;;;5063845;28;20317;-71
2023/04/08 08:30:28;;;;;;;1.80;1.30;;;8.90;99.90;;;;;;5047950;28;20698;-69
2023/04/08 08:32:57;;;;;;;2.20;1.55;;;9.00;99.90;;;;;;5055016;28;20249;-69
2023/04/08 08:35:26;;;;;;;2.58;2.25;;;9.10;99.90;;;;;;5049619;28;20228;-70
2023/04/08 08:37:53;;;;;;;1.98;1.75;;;9.00;99.90;;;;;;5049628;28;20231;-69
2023/04/08 08:40:21;;;;;;;1.75;1.65;;;8.90;99.90;;;;;;5046016;28;20225;-68
2023/04/08 08:42:51;;;;;;;2.78;2.05;;;8.90;99.90;;;;;;5049712;28;20292;-70
2023/04/08 08:45:19;;;;;;;1.67;1.40;;;8.90;99.90;;;;;;5049479;28;20657;-67
2023/04/08 08:47:49;;;;;;;1.83;1.42;;;9.00;99.90;;;;;;5062629;28;20232;-69
2023/04/08 08:50:18;;;;;;;2.10;1.50;;;8.90;99.90;;;;;;5050746;28;20263;-69
2023/04/08 08:52:50;;;;;;;1.67;1.35;;;8.90;99.90;;;;;;5058393;28;20227;-69
2023/04/08 08:55:18;;;;;;;2.72;2.25;;;8.80;99.90;;;;;;5049255;28;20204;-70
2023/04/08 08:58:07;;;;;;;1.95;1.83;;;8.80;99.90;;;;;;5061160;28;20233;-68
2023/04/08 09:00:36;;;;;;;2.45;2.10;;;8.80;99.90;;;;;;5057934;28;20234;-69
2023/04/08 09:03:19;;;;;;;2.38;2.05;;;8.90;99.90;;;;;;5062522;28;20652;-71
2023/04/08 09:05:49;;;;;;;3.85;3.10;;;8.90;99.90;;;;;;5061286;28;20286;-68
2023/04/08 09:08:24;;;;;;;3.40;2.10;;;8.80;99.90;;;;;;5060805;28;20326;-69
2023/04/08 09:10:52;;;;;;;2.45;1.63;;;8.90;99.90;;;;;;5063176;28;20283;-69
2023/04/08 09:13:23;;;;;;;2.25;2.08;;;8.90;99.90;;;;;;5061053;28;20667;-68
2023/04/08 09:16:04;;;;;;;1.27;1.00;;;8.90;99.90;;;;;;5062704;28;20218;-68
2023/04/08 09:18:34;;;;;;;2.60;2.40;;;8.80;99.90;;;;;;5062722;28;20313;-69
2023/04/08 09:21:03;;;;;;;2.15;1.77;;;8.70;99.90;;;;;;5063687;28;20584;-69
2023/04/08 09:23:47;;;;;;;1.98;1.65;;;8.80;99.90;;;;;;5059368;28;20811;-68
2023/04/08 09:26:21;;;;;;;1.90;1.77;;;8.90;99.90;;;;;;5061718;28;20211;-70
2023/04/08 09:29:00;;;;;;;2.08;1.88;;;9.00;99.90;;;;;;5061691;28;20234;-68
2023/04/08 09:31:46;;;;;;;2.28;2.17;;;9.10;99.90;;;;;;5060882;28;20286;-69
2023/04/08 09:34:19;;;;;;;1.90;1.73;;;9.20;99.90;;;;;;5063996;28;20664;-68
2023/04/08 09:36:48;;;;;;;2.55;2.08;;;9.30;99.90;;;;;;5056774;28;20224;-69
2023/04/08 09:39:16;;;;;;;2.25;2.05;;;9.40;99.90;;;;;;5060012;28;20219;-68
2023/04/08 09:41:46;;;;;;;2.13;1.95;;;9.50;99.90;;;;;;5064387;28;20289;-68
2023/04/08 09:44:15;;;;;;;1.80;1.70;;;9.70;99.90;;;;;;5064235;28;20696;-69
2023/04/08 09:47:00;;;;;;;1.77;1.65;;;9.80;99.90;;;;;;5065185;28;20238;-69
2023/04/08 09:49:34;;;;;;;1.30;1.20;;;9.90;99.90;;;;;;5061025;28;20231;-69
2023/04/08 09:52:07;;;;;;;0.98;0.98;;;10.00;99.90;;;;;;5063787;28;20210;-68
2023/04/08 09:54:44;;;;;;;1.23;1.10;;;10.10;99.90;;;;;;5064236;28;20203;-70
2023/04/08 09:57:17;;;;;;;1.77;1.67;;;10.20;99.90;;;;;;5060498;28;20199;-69
2023/04/08 09:59:50;;;;;;;1.45;1.35;;;10.30;99.90;;;;;;5063729;28;20282;-70
2023/04/08 10:02:25;;;;;;;1.77;1.52;;;10.40;99.90;;;;;;5062792;28;20630;-69
2023/04/08 10:04:58;;;;;;;3.65;2.08;;;10.50;99.90;;;;;;5059375;28;20207;-69
2023/04/08 10:07:28;;;;;;;1.08;0.82;;;10.60;99.90;;;;;;5058384;28;20309;-70
2023/04/08 10:09:58;;;;;;;1.08;0.88;;;10.90;99.90;;;;;;5061312;28;20203;-69
2023/04/08 10:12:26;;;;;;;2.53;1.85;;;11.10;99.90;;;;;;5059257;28;20279;-72
2023/04/08 10:15:22;;;;;;;1.42;1.15;;;11.20;99.90;;;;;;5065181;28;20230;-69
2023/04/08 10:17:51;;;;;;;1.08;0.98;;;11.30;99.90;;;;;;5061735;28;20703;-71
2023/04/08 10:20:43;;;;;;;1.80;0.90;;;11.50;99.90;;;;;;5062957;28;20203;-69
2023/04/08 10:23:13;;;;;;;1.70;1.60;;;11.70;99.90;;;;;;5057948;28;20551;-69
2023/04/08 10:25:41;;;;;;;1.67;1.40;;;11.80;99.90;;;;;;5057695;28;20215;-69
2023/04/08 10:28:25;;;;;;;0.70;0.60;;;11.80;99.90;;;;;;5061491;28;20317;-69
2023/04/08 10:30:55;;;;;;;1.38;1.27;;;12.00;99.90;;;;;;5061997;28;20810;-68
2023/04/08 10:33:31;;;;;;;0.95;0.90;;;12.10;99.90;;;;;;5062180;28;20708;-71
2023/04/08 10:36:10;;;;;;;0.73;0.73;;;12.20;99.90;;;;;;5061031;28;20208;-69
2023/04/08 10:38:38;;;;;;;0.65;0.60;;;12.40;99.90;;;;;;5057318;28;20779;-69
2023/04/08 10:41:06;;;;;;;1.13;1.05;;;12.50;99.90;;;;;;5060065;28;20209;-70
2023/04/08 10:43:34;;;;;;;0.73;0.60;;;12.40;99.90;;;;;;5060259;28;20671;-70
2023/04/08 10:46:03;;;;;;;1.20;1.20;;;12.30;99.90;;;;;;5064384;28;20659;-69
2023/04/08 10:48:31;;;;;;;0.88;0.85;;;12.40;99.90;;;;;;5062754;28;20263;-69
2023/04/08 10:51:02;;;;;;;2.15;1.83;;;12.40;99.90;;;;;;5065044;28;20565;-68
2023/04/08 10:53:32;;;;;;;1.25;1.15;;;12.60;99.90;;;;;;5060415;28;20570;-71
2023/04/08 10:56:07;;;;;;;0.60;0.47;;;12.60;99.90;;;;;;5061172;28;21021;-69
2023/04/08 10:58:36;;;;;;;1.13;0.98;;;12.60;99.90;;;;;;5061579;28;20238;-70
2023/04/08 11:01:06;;;;;;;0.63;0.57;;;12.60;99.90;;;;;;5064371;28;20630;-70
2023/04/08 11:03:35;;;;;;;0.93;0.93;;;12.50;99.90;;;;;;5062888;28;20234;-69
2023/04/08 11:06:06;;;;;;;1.65;0.93;;;12.40;99.90;;;;;;5060166;28;20200;-69
2023/04/08 11:08:36;;;;;;;0.75;0.70;;;12.50;99.90;;;;;;5057177;28;20300;-71
2023/04/08 11:11:07;;;;;;;1.15;0.95;;;12.50;99.90;;;;;;5061163;28;20252;-70
2023/04/08 11:13:36;;;;;;;1.98;1.88;;;12.40;99.90;;;;;;5063067;28;20322;-70
2023/04/08 11:16:06;;;;;;;1.38;1.27;;;12.60;99.90;;;;;;5061872;28;20274;-70
2023/04/08 11:18:46;;;;;;;4.13;0.88;;;12.70;99.90;;;;;;5059613;28;20230;-70
2023/04/08 11:21:16;;;;;;;1.10;1.00;;;12.60;99.90;;;;;;5062865;28;20209;-70
2023/04/08 11:23:45;;;;;;;0.95;0.80;;;12.60;99.90;;;;;;5061323;28;20218;-70
2023/04/08 11:26:15;;;;;;;0.93;0.77;;;12.60;99.90;;;;;;5062717;28;20287;-70
2023/04/08 11:28:43;;;;;;;0.70;0.70;;;12.50;99.90;;;;;;5063774;28;20238;-69
2023/04/08 11:31:12;;;;;;;1.33;1.23;;;12.40;99.90;;;;;;5060813;28;20287;-70
2023/04/08 11:33:45;;;;;;;0.55;0.45;;;12.40;99.90;;;;;;5050019;28;20222;-71
2023/04/08 11:36:20;;;;;;;2.50;0.68;;;12.50;99.90;;;;;;5057775;28;20282;-70
2023/04/08 11:38:48;;;;;;;1.65;1.05;;;12.60;99.90;;;;;;5059088;28;20250;-70
2023/04/08 11:41:16;;;;;;;0.90;0.80;;;12.70;99.90;;;;;;5062125;28;20573;-73
2023/04/08 11:43:57;;;;;;;0.80;0.80;;;12.80;99.90;;;;;;5063854;28;20302;-71
2023/04/08 11:46:25;;;;;;;0.90;0.82;;;13.10;99.90;;;;;;5063244;28;20822;-70
2023/04/08 11:49:04;;;;;;;0.60;0.60;;;13.10;99.90;;;;;;5061949;28;20228;-70
2023/04/08 11:51:35;;;;;;;0.50;0.40;;;13.20;99.90;;;;;;5058659;28;20286;-69
2023/04/08 11:54:08;;;;;;;1.08;0.73;;;13.20;99.90;;;;;;5059176;28;21638;-70
2023/04/08 11:56:45;;;;;;;0.73;0.60;;;13.30;99.90;;;;;;5057389;28;20218;-71
2023/04/08 11:59:13;;;;;;;1.10;1.00;;;13.40;99.90;;;;;;5059662;28;20238;-72
2023/04/08 12:01:41;;;;;;;0.60;0.40;;;13.50;99.90;;;;;;5058053;28;20230;-70
2023/04/08 12:04:11;;;;;;;0.93;0.77;;;13.50;99.90;;;;;;5056412;28;20204;-69
2023/04/08 12:06:42;;;;;;;0.50;0.40;;;13.40;99.90;;;;;;5056861;28;20230;-70
2023/04/08 12:09:10;;;;;;;0.50;0.40;;;13.30;99.90;;;;;;5062950;28;20336;-69
2023/04/08 12:11:38;;;;;;;0.60;0.57;;;13.20;99.90;;;;;;5054205;28;20294;-72
2023/04/08 12:14:05;;;;;;;0.60;0.40;;;13.30;99.90;;;;;;5057264;28;20243;-70
2023/04/08 12:16:33;;;;;;;2.92;1.20;;;13.30;99.90;;;;;;5059066;28;20204;-71
2023/04/08 12:19:01;;;;;;;0.70;0.65;;;13.30;99.90;;;;;;5055451;28;20816;-71
2023/04/08 12:21:31;;;;;;;0.70;0.47;;;13.30;99.90;;;;;;5081227;22;20250;-65
2023/04/08 12:24:00;;;;;;;0.70;0.60;;;13.20;99.90;;;;;;5057742;28;20311;-65
2023/04/08 12:26:28;;;;;;;0.73;0.65;;;13.10;99.90;;;;;;5061657;28;20235;-64
2023/04/08 12:28:56;;;;;;;2.28;1.08;;;13.30;99.90;;;;;;5061722;28;20654;-65
2023/04/08 12:31:26;;;;;;;1.70;1.00;;;13.40;99.90;;;;;;5053844;28;20226;-64
2023/04/08 12:33:54;;;;;;;0.52;0.43;;;13.60;99.90;;;;;;5048769;28;20299;-64
2023/04/08 12:36:22;;;;;;;0.60;0.50;;;13.80;99.90;;;;;;5049728;28;20203;-64
2023/04/08 12:38:50;;;;;;;1.00;0.90;;;13.90;99.90;;;;;;5052237;28;20208;-64
2023/04/08 12:41:19;;;;;;;0.70;0.55;;;13.90;99.90;;;;;;5052685;28;20760;-64
2023/04/08 12:43:47;;;;;;;0.82;0.47;;;14.00;99.90;;;;;;5052543;28;20227;-64
2023/04/08 12:46:15;;;;;;;0.50;0.40;;;13.80;99.90;;;;;;5049968;28;20204;-65
2023/04/08 12:48:44;;;;;;;1.10;0.90;;;13.70;99.90;;;;;;5052140;28;20219;-65
2023/04/08 12:51:12;;;;;;;0.60;0.50;;;13.80;99.90;;;;;;5051030;28;20227;-64
2023/04/08 12:53:39;;;;;;;0.70;0.43;;;13.90;99.90;;;;;;5052348;28;20212;-65
2023/04/08 12:56:07;;;;;;;1.10;0.70;;;13.80;99.90;;;;;;5034310;28;20319;-66
2023/04/08 12:58:36;;;;;;;0.60;0.40;;;13.60;99.90;;;;;;5050086;28;20208;-64
2023/04/08 13:01:05;;;;;;;1.20;1.05;;;13.50;99.90;;;;;;5052092;28;20247;-64
2023/04/08 13:03:34;;;;;;;0.98;0.63;;;13.40;99.90;;;;;;5050519;28;20204;-64
2023/04/08 13:06:02;;;;;;;0.82;0.82;;;13.50;99.90;;;;;;5049480;28;20207;-64
2023/04/08 13:08:30;;;;;;;0.60;0.50;;;14.00;99.90;;;;;;5051403;28;20204;-65